Bentley, Canada
Current Conditions -  °F | °C
As of 7:00 PM on Saturday 20 Dec 2014 (Local Time) from CYQF Reporting Station
Clear Clear  
Wind Chill: 14°   Ceiling: Unl
Heat Index: 25°   Visibility: 15mi
Dew Point: 19°   Wind: 12mph
Humidity: 80%   Direction: 170°S
Pressure: 29.41"   Gusts: NA
Location:  52.47°N, 114.05°W
Report Text: CYQF 210200Z 17010KT 15SM SKC M04/M07 A2941 RMK SLP012
Loading
Personal Weather Stations






























Interactive Weather Map New forecast layout! Learn more

10-Day Weather Forecast

Advertisements
Track Severe Weather on mobile